Time;durP1;ratioP1;P1;durP2;ratioP2;P2;SDS_P1;SDS_P2;PMS_P1;PMS_P2;Temp;Humidity;BMP_temperature;BMP_pressure;BME280_temperature;BME280_humidity;BME280_pressure;Samples;Min_cycle;Max_cycle;Signal;HPM_P1;HPM_P2
2023/12/12 00:01:35;;;;;;;43.47;25.00;;;;;;;;;;5027546;28;20041;-87
2023/12/12 00:04:06;;;;;;;50.88;27.98;;;;;;;;;;5029966;28;20399;-87
2023/12/12 00:06:32;;;;;;;26.77;14.80;;;;;;;;;;5020973;28;20807;-87
2023/12/12 00:08:57;;;;;;;31.17;18.48;;;;;;;;;;5027757;28;20017;-87
2023/12/12 00:11:22;;;;;;;24.85;14.10;;;;;;;;;;5027324;28;20025;-87
2023/12/12 00:13:48;;;;;;;26.25;16.50;;;;;;;;;;5009899;28;20025;-87
2023/12/12 00:16:13;;;;;;;16.25;10.63;;;;;;;;;;5027502;28;20029;-88
2023/12/12 00:18:38;;;;;;;14.52;9.98;;;;;;;;;;4997229;28;20091;-87
2023/12/12 00:21:05;;;;;;;18.08;11.57;;;;;;;;;;5009733;28;20388;-87
2023/12/12 00:23:31;;;;;;;22.13;13.30;;;;;;;;;;5027381;28;20459;-87
2023/12/12 00:25:56;;;;;;;22.95;13.85;;;;;;;;;;5009369;28;20079;-87
2023/12/12 00:28:21;;;;;;;38.35;21.23;;;;;;;;;;5009298;28;20049;-86
2023/12/12 00:30:47;;;;;;;36.05;19.52;;;;;;;;;;5005879;28;20036;-87
2023/12/12 00:33:13;;;;;;;44.42;27.60;;;;;;;;;;4992307;28;20136;-87
2023/12/12 00:35:38;;;;;;;44.80;21.73;;;;;;;;;;5008636;28;20039;-87
2023/12/12 00:38:03;;;;;;;39.53;23.60;;;;;;;;;;5007492;28;20096;-87
2023/12/12 00:40:28;;;;;;;44.85;28.02;;;;;;;;;;4994972;28;20440;-87
2023/12/12 00:49:00;;;;;;;26.38;15.90;;;;;;;;;;5027235;28;20036;-88
2023/12/12 00:51:25;;;;;;;17.83;12.10;;;;;;;;;;5003965;28;20025;-88
2023/12/12 00:53:52;;;;;;;31.50;17.58;;;;;;;;;;4990358;28;20021;-86
2023/12/12 00:56:17;;;;;;;20.10;13.18;;;;;;;;;;4994245;28;20044;-87
2023/12/12 00:58:42;;;;;;;27.13;14.57;;;;;;;;;;5008788;28;20033;-87
2023/12/12 01:01:07;;;;;;;23.60;14.32;;;;;;;;;;5005474;28;20113;-87
2023/12/12 01:03:33;;;;;;;22.02;14.20;;;;;;;;;;5005523;28;20032;-87
2023/12/12 01:05:59;;;;;;;14.35;10.18;;;;;;;;;;5008715;28;20412;-87
2023/12/12 01:08:24;;;;;;;16.25;9.68;;;;;;;;;;5007787;28;20116;-87
2023/12/12 01:10:50;;;;;;;20.92;14.50;;;;;;;;;;5024982;28;20136;-87
2023/12/12 01:13:15;;;;;;;19.52;12.18;;;;;;;;;;5006666;28;20449;-87
2023/12/12 01:15:40;;;;;;;20.05;11.70;;;;;;;;;;5006002;28;20036;-86
2023/12/12 01:18:05;;;;;;;23.00;12.95;;;;;;;;;;5008395;28;20037;-87
2023/12/12 01:20:31;;;;;;;25.85;14.32;;;;;;;;;;5025733;28;20104;-87
2023/12/12 01:22:56;;;;;;;32.65;18.38;;;;;;;;;;5010099;28;20018;-89
2023/12/12 01:25:22;;;;;;;18.05;11.20;;;;;;;;;;4988580;28;20032;-89
2023/12/12 01:27:47;;;;;;;15.57;9.77;;;;;;;;;;5003219;28;20107;-87
2023/12/12 01:30:12;;;;;;;24.73;13.45;;;;;;;;;;5025038;28;20033;-87
2023/12/12 01:32:38;;;;;;;19.73;10.75;;;;;;;;;;5026527;28;20029;-87
2023/12/12 01:35:03;;;;;;;43.67;16.33;;;;;;;;;;5008456;28;20025;-87
2023/12/12 01:37:29;;;;;;;25.92;14.57;;;;;;;;;;5025379;28;20044;-87
2023/12/12 01:39:54;;;;;;;37.95;18.30;;;;;;;;;;5025564;28;20063;-87
2023/12/12 01:42:19;;;;;;;23.77;14.90;;;;;;;;;;5025897;28;20033;-87
2023/12/12 01:44:44;;;;;;;24.88;14.23;;;;;;;;;;5009729;28;20021;-86
2023/12/12 01:47:10;;;;;;;22.08;12.88;;;;;;;;;;5009700;28;20091;-87
2023/12/12 01:49:36;;;;;;;30.63;17.63;;;;;;;;;;5024404;28;20407;-87
2023/12/12 01:52:01;;;;;;;41.90;21.63;;;;;;;;;;5023958;28;20030;-87
2023/12/12 01:54:28;;;;;;;40.75;22.05;;;;;;;;;;5008071;28;20033;-88
2023/12/12 01:56:53;;;;;;;42.15;22.92;;;;;;;;;;5007429;28;20427;-87
2023/12/12 01:59:20;;;;;;;45.28;25.20;;;;;;;;;;5024204;28;20459;-87
2023/12/12 02:01:46;;;;;;;46.92;23.90;;;;;;;;;;5008064;28;20136;-87
2023/12/12 02:04:12;;;;;;;38.80;20.85;;;;;;;;;;5024282;28;20028;-87
2023/12/12 02:06:39;;;;;;;32.53;19.92;;;;;;;;;;5009277;28;20025;-87
2023/12/12 02:09:05;;;;;;;38.65;23.05;;;;;;;;;;5019475;28;20326;-88
2023/12/12 02:11:30;;;;;;;27.05;16.70;;;;;;;;;;5024603;28;20398;-87
2023/12/12 02:13:55;;;;;;;29.27;17.73;;;;;;;;;;5024950;28;20108;-87
2023/12/12 02:16:21;;;;;;;25.98;15.07;;;;;;;;;;5008229;28;20204;-87
2023/12/12 02:18:46;;;;;;;20.25;12.50;;;;;;;;;;5024973;28;20083;-88
2023/12/12 02:21:19;;;;;;;17.63;10.95;;;;;;;;;;5025789;28;20067;-88
2023/12/12 02:23:48;;;;;;;16.17;11.73;;;;;;;;;;5014163;28;20029;-87
2023/12/12 02:29:34;;;;;;;14.85;10.45;;;;;;;;;;5025558;28;20087;-88
2023/12/12 02:31:59;;;;;;;19.55;11.23;;;;;;;;;;5006423;28;20029;-88
2023/12/12 02:34:24;;;;;;;16.00;9.70;;;;;;;;;;5027203;28;20049;-88
2023/12/12 02:36:50;;;;;;;17.23;10.48;;;;;;;;;;5027570;28;20383;-87
2023/12/12 02:39:15;;;;;;;15.90;9.98;;;;;;;;;;5009082;28;20056;-88
2023/12/12 02:41:40;;;;;;;21.52;12.93;;;;;;;;;;5026044;28;20022;-87
2023/12/12 02:44:06;;;;;;;22.25;12.82;;;;;;;;;;5026649;28;20032;-88
2023/12/12 02:46:31;;;;;;;14.40;8.85;;;;;;;;;;5009900;28;20484;-88
2023/12/12 02:48:56;;;;;;;14.25;8.60;;;;;;;;;;5002596;28;20018;-87
2023/12/12 02:51:22;;;;;;;10.85;7.28;;;;;;;;;;5017220;28;20059;-88
2023/12/12 02:53:47;;;;;;;13.73;7.75;;;;;;;;;;5016642;28;20441;-88
2023/12/12 02:56:12;;;;;;;11.05;7.93;;;;;;;;;;5025886;28;20049;-88
2023/12/12 02:58:37;;;;;;;13.10;7.40;;;;;;;;;;5026063;28;20033;-88
2023/12/12 03:01:03;;;;;;;14.45;8.73;;;;;;;;;;5009666;28;20216;-88
2023/12/12 03:03:28;;;;;;;18.75;11.20;;;;;;;;;;5026073;28;20415;-88
2023/12/12 03:05:53;;;;;;;20.42;11.82;;;;;;;;;;5026532;28;20072;-88
2023/12/12 03:08:19;;;;;;;17.77;9.90;;;;;;;;;;5027492;28;20021;-88
2023/12/12 03:10:46;;;;;;;19.83;10.93;;;;;;;;;;5025672;28;20445;-88
2023/12/12 03:13:11;;;;;;;22.20;11.27;;;;;;;;;;5027187;28;20033;-88
2023/12/12 03:15:36;;;;;;;21.50;11.15;;;;;;;;;;5026388;28;20018;-88
2023/12/12 03:18:01;;;;;;;19.67;10.15;;;;;;;;;;5027468;28;20024;-88
2023/12/12 03:20:28;;;;;;;38.25;17.27;;;;;;;;;;5011315;28;20088;-88
2023/12/12 03:22:53;;;;;;;19.00;11.05;;;;;;;;;;5009686;28;20021;-87
2023/12/12 03:25:19;;;;;;;18.15;10.80;;;;;;;;;;5018457;28;20025;-89
2023/12/12 03:27:45;;;;;;;148.73;48.08;;;;;;;;;;5019249;28;20411;-88
2023/12/12 03:30:11;;;;;;;45.25;22.95;;;;;;;;;;5007144;28;20041;-88
2023/12/12 03:32:36;;;;;;;18.65;11.27;;;;;;;;;;4989411;28;20025;-88
2023/12/12 03:35:02;;;;;;;19.85;11.35;;;;;;;;;;4980073;28;20061;-88
2023/12/12 03:37:28;;;;;;;13.57;9.80;;;;;;;;;;5005799;28;20438;-88
2023/12/12 03:39:53;;;;;;;16.25;11.15;;;;;;;;;;4985975;28;20374;-88
2023/12/12 03:42:18;;;;;;;16.30;9.00;;;;;;;;;;4986318;28;20391;-88
2023/12/12 03:44:44;;;;;;;12.48;8.30;;;;;;;;;;4992313;28;20025;-88
2023/12/12 03:47:09;;;;;;;18.42;11.43;;;;;;;;;;5005847;28;20022;-88
2023/12/12 03:49:34;;;;;;;49.20;20.67;;;;;;;;;;5005134;28;20029;-88
2023/12/12 03:52:00;;;;;;;383.85;94.25;;;;;;;;;;4989946;28;20022;-88
2023/12/12 03:54:25;;;;;;;90.78;27.33;;;;;;;;;;5010093;28;20018;-88
2023/12/12 03:56:51;;;;;;;63.92;22.00;;;;;;;;;;4992722;28;20025;-88
2023/12/12 03:59:16;;;;;;;13.88;8.20;;;;;;;;;;4992580;28;20113;-89
2023/12/12 04:01:46;;;;;;;17.35;8.55;;;;;;;;;;5010651;28;20021;-88
2023/12/12 04:04:11;;;;;;;59.53;19.40;;;;;;;;;;4976439;28;20026;-88
2023/12/12 04:06:42;;;;;;;104.47;31.33;;;;;;;;;;5010216;28;20025;-88
2023/12/12 04:09:09;;;;;;;18.42;10.70;;;;;;;;;;4992856;28;20439;-88
2023/12/12 04:11:34;;;;;;;12.35;7.38;;;;;;;;;;5002177;28;20026;-88
2023/12/12 04:14:00;;;;;;;9.10;6.10;;;;;;;;;;5010432;28;20431;-88
2023/12/12 04:16:25;;;;;;;8.63;5.85;;;;;;;;;;5003272;28;20145;-87
2023/12/12 04:18:51;;;;;;;8.73;6.00;;;;;;;;;;4996363;28;20029;-87
2023/12/12 04:21:16;;;;;;;28.85;10.27;;;;;;;;;;4995249;28;20075;-87
2023/12/12 04:23:42;;;;;;;9.82;6.53;;;;;;;;;;5009388;28;20021;-87
2023/12/12 04:26:09;;;;;;;9.52;7.10;;;;;;;;;;4990728;28;20026;-88
2023/12/12 04:28:35;;;;;;;11.50;8.52;;;;;;;;;;4974488;28;20054;-87
2023/12/12 04:31:01;;;;;;;14.85;9.93;;;;;;;;;;4975726;28;20037;-87
2023/12/12 04:33:26;;;;;;;20.00;13.05;;;;;;;;;;5010226;28;20014;-87
2023/12/12 04:35:52;;;;;;;20.48;13.55;;;;;;;;;;5010047;28;20507;-88
2023/12/12 04:38:18;;;;;;;16.95;10.40;;;;;;;;;;5010189;28;20435;-87
2023/12/12 04:40:43;;;;;;;20.15;11.90;;;;;;;;;;4991805;28;20514;-88
2023/12/12 04:43:08;;;;;;;25.98;16.77;;;;;;;;;;5009505;28;20056;-88
2023/12/12 04:45:34;;;;;;;28.83;17.88;;;;;;;;;;4992016;28;20018;-88
2023/12/12 04:47:59;;;;;;;24.80;14.95;;;;;;;;;;5009566;28;20022;-88
2023/12/12 04:50:24;;;;;;;28.15;16.90;;;;;;;;;;4992013;28;20080;-88
2023/12/12 04:52:50;;;;;;;26.33;15.57;;;;;;;;;;4991569;28;20096;-88
2023/12/12 04:55:16;;;;;;;39.20;21.13;;;;;;;;;;4991573;28;20026;-89
2023/12/12 04:57:43;;;;;;;25.70;14.80;;;;;;;;;;5005778;28;20024;-88
2023/12/12 05:00:13;;;;;;;36.78;17.48;;;;;;;;;;4992055;28;20064;-88
2023/12/12 05:02:38;;;;;;;38.97;17.98;;;;;;;;;;4994726;28;20022;-88
2023/12/12 05:05:04;;;;;;;25.27;12.70;;;;;;;;;;5004861;28;20108;-88
2023/12/12 05:07:29;;;;;;;18.70;12.25;;;;;;;;;;5009381;28;20021;-88
2023/12/12 05:09:54;;;;;;;23.92;14.75;;;;;;;;;;4991440;28;20414;-88
2023/12/12 05:12:21;;;;;;;29.02;18.00;;;;;;;;;;4991550;28;20033;-88
2023/12/12 05:14:47;;;;;;;29.95;17.85;;;;;;;;;;5005804;28;20343;-88
2023/12/12 05:17:12;;;;;;;43.55;23.38;;;;;;;;;;4991536;28;20408;-88
2023/12/12 05:19:37;;;;;;;43.72;23.90;;;;;;;;;;4996221;28;20479;-87
2023/12/12 05:22:03;;;;;;;37.78;23.42;;;;;;;;;;5008793;28;20445;-87
2023/12/12 05:24:28;;;;;;;39.65;23.48;;;;;;;;;;5007555;28;20065;-87
2023/12/12 05:26:54;;;;;;;42.60;23.27;;;;;;;;;;5008845;28;20541;-87
2023/12/12 05:29:19;;;;;;;60.97;24.83;;;;;;;;;;4978783;28;20570;-88
2023/12/12 05:31:45;;;;;;;52.45;23.90;;;;;;;;;;5007372;28;20159;-88
2023/12/12 05:34:10;;;;;;;25.23;16.13;;;;;;;;;;4987733;28;20022;-89
2023/12/12 05:36:35;;;;;;;38.97;18.27;;;;;;;;;;4955157;28;20022;-88
2023/12/12 05:39:01;;;;;;;39.65;17.83;;;;;;;;;;4991556;28;20046;-87
2023/12/12 05:41:27;;;;;;;21.25;12.98;;;;;;;;;;5007174;28;20476;-87
2023/12/12 05:43:52;;;;;;;36.70;17.10;;;;;;;;;;5007612;28;20070;-87
2023/12/12 05:46:17;;;;;;;42.35;18.75;;;;;;;;;;4987626;28;20077;-88
2023/12/12 05:48:43;;;;;;;18.77;10.05;;;;;;;;;;4971628;28;20025;-88
2023/12/12 05:51:08;;;;;;;28.30;12.75;;;;;;;;;;4990866;28;20120;-87
2023/12/12 05:53:33;;;;;;;36.88;19.55;;;;;;;;;;5007102;28;20022;-88
2023/12/12 05:55:59;;;;;;;50.92;24.50;;;;;;;;;;5008662;28;20022;-88
2023/12/12 05:58:24;;;;;;;47.22;21.02;;;;;;;;;;4990718;28;20080;-87
2023/12/12 06:00:51;;;;;;;58.13;23.90;;;;;;;;;;5007580;28;20104;-88
2023/12/12 06:03:17;;;;;;;24.13;15.57;;;;;;;;;;5008785;28;20084;-88
2023/12/12 06:05:43;;;;;;;12.73;7.65;;;;;;;;;;4991694;28;20029;-87
2023/12/12 06:08:08;;;;;;;34.30;19.10;;;;;;;;;;4991566;28;20025;-87
2023/12/12 06:10:33;;;;;;;58.13;25.48;;;;;;;;;;5010529;28;20049;-88
2023/12/12 06:12:59;;;;;;;54.40;29.65;;;;;;;;;;5000449;28;20451;-87
2023/12/12 06:15:24;;;;;;;51.17;30.60;;;;;;;;;;4980674;28;20030;-88
2023/12/12 06:17:49;;;;;;;105.90;42.70;;;;;;;;;;4992254;28;20033;-88
2023/12/12 06:20:14;;;;;;;100.75;40.65;;;;;;;;;;4990671;28;20026;-88
2023/12/12 06:22:40;;;;;;;38.60;21.30;;;;;;;;;;5009382;28;20037;-87
2023/12/12 06:25:06;;;;;;;106.82;35.53;;;;;;;;;;4991176;28;20124;-87
2023/12/12 06:27:31;;;;;;;78.38;32.92;;;;;;;;;;5013068;28;20102;-88
2023/12/12 06:29:57;;;;;;;125.03;50.78;;;;;;;;;;5011624;28;20108;-88
2023/12/12 06:32:23;;;;;;;85.65;47.85;;;;;;;;;;5019565;28;20171;-87
2023/12/12 06:34:48;;;;;;;42.47;26.73;;;;;;;;;;5009920;28;20371;-88
2023/12/12 06:37:14;;;;;;;58.47;34.60;;;;;;;;;;5027625;28;20041;-87
2023/12/12 06:39:39;;;;;;;115.30;57.22;;;;;;;;;;5009506;28;20048;-88
2023/12/12 06:42:04;;;;;;;81.20;48.47;;;;;;;;;;5014154;28;20163;-87
2023/12/12 06:44:30;;;;;;;74.43;36.20;;;;;;;;;;5029113;28;20017;-87
2023/12/12 06:46:55;;;;;;;82.47;38.92;;;;;;;;;;5009411;28;20079;-88
2023/12/12 06:49:21;;;;;;;95.97;42.28;;;;;;;;;;5026913;28;20386;-87
2023/12/12 06:51:46;;;;;;;72.82;36.25;;;;;;;;;;5009209;28;20014;-88
2023/12/12 06:54:11;;;;;;;57.00;30.85;;;;;;;;;;5024522;28;20014;-87
2023/12/12 06:56:37;;;;;;;90.50;56.42;;;;;;;;;;5008981;28;20029;-88
2023/12/12 06:59:02;;;;;;;65.45;38.50;;;;;;;;;;5025910;28;20061;-87
2023/12/12 07:01:27;;;;;;;73.38;45.05;;;;;;;;;;5026582;28;20029;-87
2023/12/12 07:03:53;;;;;;;70.50;44.30;;;;;;;;;;5025993;28;20483;-87
2023/12/12 07:06:21;;;;;;;36.50;26.85;;;;;;;;;;5023795;28;20026;-87
2023/12/12 07:08:46;;;;;;;52.80;33.07;;;;;;;;;;5006709;28;20041;-87
2023/12/12 07:11:11;;;;;;;55.25;32.50;;;;;;;;;;5009311;28;20663;-86
2023/12/12 07:13:37;;;;;;;59.10;38.42;;;;;;;;;;5008824;28;20109;-85
2023/12/12 07:16:03;;;;;;;83.70;50.40;;;;;;;;;;5009377;28;20490;-85
2023/12/12 07:18:29;;;;;;;110.63;55.17;;;;;;;;;;5026797;28;20673;-85
2023/12/12 07:20:54;;;;;;;75.25;47.58;;;;;;;;;;5008558;28;20148;-87
2023/12/12 07:23:19;;;;;;;96.07;55.13;;;;;;;;;;5016658;28;20028;-87
2023/12/12 07:25:46;;;;;;;161.50;92.80;;;;;;;;;;5030427;28;20116;-86
2023/12/12 07:28:12;;;;;;;184.45;100.68;;;;;;;;;;5017835;28;20042;-87
2023/12/12 07:30:37;;;;;;;80.57;54.28;;;;;;;;;;5017844;28;20572;-87
2023/12/12 07:33:02;;;;;;;132.48;82.35;;;;;;;;;;5017330;28;20022;-87
2023/12/12 07:35:28;;;;;;;79.75;58.30;;;;;;;;;;5029110;28;20028;-87
2023/12/12 07:37:53;;;;;;;92.40;61.65;;;;;;;;;;5033280;28;20468;-86
2023/12/12 07:40:18;;;;;;;77.07;48.97;;;;;;;;;;5035850;28;20018;-86
2023/12/12 07:42:45;;;;;;;74.35;43.53;;;;;;;;;;5030979;28;20364;-86
2023/12/12 07:45:11;;;;;;;47.30;30.67;;;;;;;;;;5016957;28;20017;-86
2023/12/12 07:47:36;;;;;;;41.70;27.83;;;;;;;;;;5011512;28;20468;-86
2023/12/12 07:50:05;;;;;;;57.47;35.47;;;;;;;;;;5030396;28;20021;-86
2023/12/12 07:52:31;;;;;;;67.55;45.53;;;;;;;;;;5014696;28;20029;-86
2023/12/12 07:54:56;;;;;;;63.28;37.53;;;;;;;;;;5015439;28;20033;-86
2023/12/12 07:57:21;;;;;;;62.70;38.75;;;;;;;;;;5029289;28;20048;-87
2023/12/12 07:59:47;;;;;;;47.25;27.42;;;;;;;;;;5027441;28;20379;-86
2023/12/12 08:02:12;;;;;;;44.10;29.30;;;;;;;;;;5011122;28;20028;-86
2023/12/12 08:04:37;;;;;;;110.57;64.85;;;;;;;;;;5028061;28;20026;-87
2023/12/12 08:07:03;;;;;;;61.97;33.92;;;;;;;;;;5011618;28;20116;-87
2023/12/12 08:09:29;;;;;;;30.83;19.88;;;;;;;;;;5013401;28;20033;-86
2023/12/12 08:11:54;;;;;;;52.53;30.23;;;;;;;;;;5027966;28;20457;-87
2023/12/12 08:14:20;;;;;;;51.38;28.33;;;;;;;;;;5011869;28;20502;-86
2023/12/12 08:16:45;;;;;;;49.83;29.88;;;;;;;;;;5011467;28;20314;-87
2023/12/12 08:19:10;;;;;;;74.20;44.13;;;;;;;;;;5022749;28;20026;-86
2023/12/12 08:21:35;;;;;;;82.53;56.17;;;;;;;;;;5028214;28;20045;-86
2023/12/12 08:24:01;;;;;;;74.85;47.10;;;;;;;;;;5029335;28;20033;-87
2023/12/12 08:26:27;;;;;;;73.82;47.03;;;;;;;;;;5029443;28;20021;-87
2023/12/12 08:28:52;;;;;;;82.55;51.70;;;;;;;;;;5011902;28;20045;-87
2023/12/12 08:31:17;;;;;;;65.47;42.13;;;;;;;;;;5011884;28;20026;-87
2023/12/12 08:33:43;;;;;;;76.00;49.30;;;;;;;;;;5029719;28;20028;-86
2023/12/12 08:36:10;;;;;;;64.65;40.38;;;;;;;;;;5013128;28;20494;-86
2023/12/12 08:38:36;;;;;;;54.65;33.53;;;;;;;;;;5027845;28;20483;-86
2023/12/12 08:41:01;;;;;;;45.72;28.92;;;;;;;;;;5029572;28;20109;-86
2023/12/12 08:43:27;;;;;;;67.88;44.42;;;;;;;;;;5011168;28;20052;-87
2023/12/12 08:45:54;;;;;;;59.50;39.10;;;;;;;;;;5029576;28;20028;-87
2023/12/12 08:48:21;;;;;;;92.82;55.40;;;;;;;;;;5011705;28;20025;-88
2023/12/12 08:50:48;;;;;;;76.28;51.65;;;;;;;;;;5019735;28;20033;-87
2023/12/12 08:53:15;;;;;;;80.65;51.80;;;;;;;;;;5029571;28;20060;-88
2023/12/12 08:55:41;;;;;;;186.38;116.07;;;;;;;;;;5029542;28;20025;-87
2023/12/12 08:58:07;;;;;;;91.90;60.85;;;;;;;;;;5011696;28;20021;-84
2023/12/12 09:00:32;;;;;;;89.93;56.67;;;;;;;;;;5028239;28;20475;-86
2023/12/12 09:02:58;;;;;;;42.28;30.92;;;;;;;;;;5028719;28;20053;-85
2023/12/12 09:05:23;;;;;;;48.97;37.88;;;;;;;;;;4994979;28;20021;-85
2023/12/12 09:07:49;;;;;;;40.65;27.33;;;;;;;;;;5011246;28;20491;-84
2023/12/12 09:10:14;;;;;;;26.75;18.15;;;;;;;;;;5011178;28;20021;-85
2023/12/12 09:12:39;;;;;;;38.17;28.83;;;;;;;;;;5011147;28;20032;-85
2023/12/12 09:15:05;;;;;;;21.17;16.20;;;;;;;;;;5011104;28;20061;-85
2023/12/12 09:17:31;;;;;;;29.63;25.92;;;;;;;;;;5022915;28;20494;-86
2023/12/12 09:19:56;;;;;;;46.30;29.30;;;;;;;;;;5026544;28;20021;-86
2023/12/12 09:22:21;;;;;;;79.32;52.55;;;;;;;;;;5027440;28;20071;-87
2023/12/12 09:24:47;;;;;;;37.17;26.42;;;;;;;;;;5011104;28;20017;-86
2023/12/12 09:27:13;;;;;;;53.58;28.38;;;;;;;;;;5018642;28;20453;-86
2023/12/12 09:29:40;;;;;;;93.47;54.42;;;;;;;;;;5017252;28;20021;-87
2023/12/12 09:32:07;;;;;;;108.18;61.60;;;;;;;;;;5028584;28;20041;-86
2023/12/12 09:34:33;;;;;;;19.50;13.25;;;;;;;;;;5028252;28;20030;-88
2023/12/12 09:36:58;;;;;;;28.15;17.30;;;;;;;;;;5010899;28;20391;-86
2023/12/12 09:39:23;;;;;;;15.82;11.38;;;;;;;;;;5010672;28;20028;-88
2023/12/12 09:41:51;;;;;;;19.00;14.48;;;;;;;;;;5011199;28;20024;-86
2023/12/12 09:44:17;;;;;;;21.23;13.23;;;;;;;;;;5027158;28;20025;-87
2023/12/12 09:46:46;;;;;;;24.13;16.88;;;;;;;;;;5011019;28;20025;-87
2023/12/12 09:49:11;;;;;;;18.40;13.68;;;;;;;;;;5028899;28;20478;-87
2023/12/12 09:51:43;;;;;;;16.20;11.55;;;;;;;;;;5012866;28;20033;-87
2023/12/12 09:54:11;;;;;;;25.92;17.08;;;;;;;;;;5020355;28;20025;-87
2023/12/12 09:56:37;;;;;;;25.35;16.92;;;;;;;;;;5018439;28;20189;-86
2023/12/12 09:59:03;;;;;;;27.17;19.02;;;;;;;;;;5018511;28;20031;-86
2023/12/12 10:01:30;;;;;;;21.83;15.27;;;;;;;;;;5017841;28;20043;-87
2023/12/12 10:03:56;;;;;;;22.38;15.80;;;;;;;;;;5028190;28;20432;-86
2023/12/12 10:06:24;;;;;;;21.20;16.25;;;;;;;;;;5034928;28;20055;-86
2023/12/12 10:08:50;;;;;;;15.20;10.63;;;;;;;;;;5027473;28;20024;-86
2023/12/12 10:11:15;;;;;;;22.35;14.07;;;;;;;;;;4955434;28;20042;-86
2023/12/12 10:13:50;;;;;;;18.65;12.70;;;;;;;;;;4958123;28;20452;-86
2023/12/12 10:16:16;;;;;;;27.40;18.60;;;;;;;;;;4974812;28;20035;-86
2023/12/12 10:18:42;;;;;;;13.68;9.85;;;;;;;;;;4972363;28;20490;-87
2023/12/12 10:21:17;;;;;;;18.42;11.85;;;;;;;;;;4957920;28;20468;-86
2023/12/12 10:23:43;;;;;;;34.05;19.75;;;;;;;;;;4970124;28;20022;-87
2023/12/12 10:26:08;;;;;;;249.05;105.85;;;;;;;;;;4975559;28;20121;-89
2023/12/12 10:28:34;;;;;;;70.55;34.42;;;;;;;;;;4944125;28;20468;-88
2023/12/12 10:31:00;;;;;;;69.13;37.33;;;;;;;;;;4968388;28;20050;-88
2023/12/12 10:33:29;;;;;;;11.95;7.55;;;;;;;;;;4966736;28;20018;-86
2023/12/12 10:35:54;;;;;;;21.80;19.58;;;;;;;;;;4946073;28;20029;-87
2023/12/12 10:38:29;;;;;;;23.90;15.85;;;;;;;;;;4963667;28;20161;-87
2023/12/12 10:40:54;;;;;;;30.33;15.65;;;;;;;;;;4959781;28;20023;-89
2023/12/12 10:43:20;;;;;;;34.05;25.25;;;;;;;;;;5018779;28;20083;-87
2023/12/12 10:45:46;;;;;;;21.33;13.15;;;;;;;;;;5015228;28;20017;-87
2023/12/12 10:48:12;;;;;;;22.65;13.73;;;;;;;;;;5022599;28;20021;-88
2023/12/12 10:50:38;;;;;;;39.70;30.08;;;;;;;;;;4985898;28;20842;-89
2023/12/12 10:53:04;;;;;;;11.13;7.68;;;;;;;;;;5003612;28;20499;-88
2023/12/12 10:55:31;;;;;;;9.13;6.95;;;;;;;;;;5002236;28;20753;-87
2023/12/12 10:57:56;;;;;;;6.57;4.75;;;;;;;;;;5023262;28;20034;-88
2023/12/12 11:00:23;;;;;;;14.75;10.07;;;;;;;;;;5006696;28;20026;-87
2023/12/12 11:02:49;;;;;;;12.55;8.25;;;;;;;;;;5008518;28;20076;-88
2023/12/12 11:05:15;;;;;;;31.67;21.83;;;;;;;;;;5027210;28;20434;-87
2023/12/12 11:07:41;;;;;;;10.10;7.20;;;;;;;;;;5009941;28;20053;-88
2023/12/12 11:10:11;;;;;;;15.40;9.02;;;;;;;;;;5014111;28;20032;-86
2023/12/12 11:12:38;;;;;;;68.82;38.33;;;;;;;;;;5029541;28;20036;-88
2023/12/12 11:15:05;;;;;;;18.70;12.60;;;;;;;;;;5026880;28;20209;-88
2023/12/12 11:17:30;;;;;;;33.88;20.45;;;;;;;;;;5028597;28;20021;-87
2023/12/12 11:19:56;;;;;;;84.15;37.72;;;;;;;;;;5016889;28;20037;-89
2023/12/12 11:22:41;;;;;;;23.77;16.05;;;;;;;;;;5029155;28;20025;-88
2023/12/12 11:25:10;;;;;;;132.20;65.78;;;;;;;;;;5035133;28;20024;-87
2023/12/12 11:27:40;;;;;;;26.70;17.10;;;;;;;;;;5034106;28;20037;-88
2023/12/12 11:30:06;;;;;;;33.67;11.82;;;;;;;;;;5036637;28;20030;-88
2023/12/12 11:32:35;;;;;;;84.38;38.65;;;;;;;;;;5027504;28;20020;-88
2023/12/12 11:35:06;;;;;;;22.83;12.15;;;;;;;;;;5028413;28;20213;-87
2023/12/12 11:37:44;;;;;;;55.78;43.03;;;;;;;;;;5025205;28;20119;-87
2023/12/12 11:40:10;;;;;;;10.10;7.13;;;;;;;;;;5007674;28;20113;-87
2023/12/12 11:42:36;;;;;;;22.73;13.65;;;;;;;;;;5007029;28;20117;-87
2023/12/12 11:45:02;;;;;;;23.63;17.55;;;;;;;;;;4990006;28;20028;-87
2023/12/12 11:47:29;;;;;;;16.48;10.52;;;;;;;;;;5008471;28;20176;-87
2023/12/12 11:50:18;;;;;;;20.88;18.65;;;;;;;;;;5007915;28;20024;-87
2023/12/12 11:52:45;;;;;;;19.98;14.85;;;;;;;;;;5021931;28;20026;-88
2023/12/12 11:55:17;;;;;;;7.68;6.95;;;;;;;;;;5010820;28;20022;-87
2023/12/12 11:57:44;;;;;;;33.92;19.98;;;;;;;;;;4992757;28;20480;-87
2023/12/12 12:00:13;;;;;;;13.02;9.98;;;;;;;;;;5009535;28;20121;-87
2023/12/12 12:02:38;;;;;;;37.17;33.20;;;;;;;;;;5027483;28;20025;-87
2023/12/12 12:05:04;;;;;;;29.60;24.10;;;;;;;;;;5012466;28;20017;-88
2023/12/12 12:07:29;;;;;;;16.40;13.73;;;;;;;;;;5023013;28;20704;-86
2023/12/12 12:09:54;;;;;;;9.10;6.30;;;;;;;;;;5012102;28;20029;-86
2023/12/12 12:12:20;;;;;;;22.45;14.23;;;;;;;;;;5029553;28;20033;-87
2023/12/12 12:14:45;;;;;;;43.13;22.90;;;;;;;;;;5011650;28;20025;-87
2023/12/12 12:17:11;;;;;;;55.40;24.30;;;;;;;;;;5016063;28;20026;-86
2023/12/12 12:19:37;;;;;;;112.50;35.22;;;;;;;;;;5030137;28;20563;-87
2023/12/12 12:22:10;;;;;;;9.60;7.43;;;;;;;;;;5028250;28;20492;-87
2023/12/12 12:24:42;;;;;;;106.72;32.28;;;;;;;;;;5012363;28;20044;-87
2023/12/12 12:27:08;;;;;;;32.25;12.75;;;;;;;;;;5012118;28;20141;-88
2023/12/12 12:29:34;;;;;;;19.13;12.57;;;;;;;;;;5012513;28;20052;-87
2023/12/12 12:32:09;;;;;;;14.82;9.20;;;;;;;;;;5029963;28;20294;-87
2023/12/12 12:34:35;;;;;;;17.85;12.10;;;;;;;;;;5029076;28;20491;-86
2023/12/12 12:37:02;;;;;;;83.63;31.60;;;;;;;;;;5012006;28;20025;-87
2023/12/12 12:39:27;;;;;;;52.55;22.10;;;;;;;;;;5029860;28;20026;-87
2023/12/12 12:41:53;;;;;;;43.97;18.38;;;;;;;;;;5011371;28;20013;-87
2023/12/12 12:44:18;;;;;;;177.73;58.58;;;;;;;;;;5018416;28;20487;-87
2023/12/12 12:46:53;;;;;;;168.20;56.97;;;;;;;;;;5011514;28;20052;-86
2023/12/12 12:49:19;;;;;;;131.05;42.60;;;;;;;;;;5011704;28;20414;-87
2023/12/12 12:51:47;;;;;;;15.68;8.75;;;;;;;;;;4995019;28;20028;-87
2023/12/12 12:54:13;;;;;;;;;;;;;;;;;;5022533;28;20104;-87
2023/12/12 12:56:38;;;;;;;12.98;8.65;;;;;;;;;;5029363;28;20600;-87
2023/12/12 12:59:03;;;;;;;30.33;20.30;;;;;;;;;;5011590;28;20509;-87
2023/12/12 13:01:29;;;;;;;32.92;18.48;;;;;;;;;;5010570;28;20116;-87
2023/12/12 13:03:55;;;;;;;43.90;23.00;;;;;;;;;;5029160;28;20099;-88
2023/12/12 13:06:20;;;;;;;33.53;22.05;;;;;;;;;;4986975;28;20023;-87
2023/12/12 13:08:46;;;;;;;7.40;4.70;;;;;;;;;;4987275;28;20256;-87
2023/12/12 13:11:11;;;;;;;11.38;7.38;;;;;;;;;;4988188;28;20038;-87
2023/12/12 13:13:37;;;;;;;16.90;9.80;;;;;;;;;;4989851;28;20079;-88
2023/12/12 13:16:05;;;;;;;12.00;7.55;;;;;;;;;;4992910;28;20034;-88
2023/12/12 13:18:30;;;;;;;31.13;18.80;;;;;;;;;;4987677;28;20506;-87
2023/12/12 13:20:56;;;;;;;57.80;26.20;;;;;;;;;;4997812;28;20266;-88
2023/12/12 13:23:21;;;;;;;27.10;16.35;;;;;;;;;;5006154;28;20506;-87
2023/12/12 13:25:47;;;;;;;20.90;12.05;;;;;;;;;;4998576;28;20064;-87
2023/12/12 13:28:12;;;;;;;45.58;23.05;;;;;;;;;;4931984;29;20529;-88
2023/12/12 13:30:39;;;;;;;11.20;7.35;;;;;;;;;;4936113;28;20477;-88
2023/12/12 13:33:06;;;;;;;17.85;12.13;;;;;;;;;;4950812;28;20035;-88
2023/12/12 13:35:31;;;;;;;21.08;16.40;;;;;;;;;;4951108;28;20397;-88
2023/12/12 13:37:57;;;;;;;23.83;12.30;;;;;;;;;;4967111;28;20047;-89
2023/12/12 13:40:22;;;;;;;26.55;14.75;;;;;;;;;;4964440;28;20501;-87
2023/12/12 13:42:48;;;;;;;12.25;8.45;;;;;;;;;;4966690;28;20053;-87
2023/12/12 13:45:13;;;;;;;18.08;11.35;;;;;;;;;;4951316;28;20093;-88
2023/12/12 13:47:39;;;;;;;68.70;31.58;;;;;;;;;;4967188;28;20643;-88
2023/12/12 13:50:04;;;;;;;21.55;15.18;;;;;;;;;;4966999;28;20508;-87
2023/12/12 13:52:30;;;;;;;43.53;24.95;;;;;;;;;;4966454;28;20033;-87
2023/12/12 13:54:57;;;;;;;52.45;29.65;;;;;;;;;;4966929;28;20042;-87
2023/12/12 13:57:23;;;;;;;19.17;11.13;;;;;;;;;;4966922;28;20443;-87
2023/12/12 13:59:49;;;;;;;32.60;17.67;;;;;;;;;;5000061;28;20112;-87
2023/12/12 14:02:14;;;;;;;61.30;31.15;;;;;;;;;;5025746;28;20013;-87
2023/12/12 14:04:40;;;;;;;57.85;31.70;;;;;;;;;;5023152;28;20399;-87
2023/12/12 14:07:05;;;;;;;56.60;20.85;;;;;;;;;;5027591;28;20029;-87
2023/12/12 14:09:30;;;;;;;27.88;16.50;;;;;;;;;;5018039;28;20013;-89
2023/12/12 14:11:56;;;;;;;30.77;19.75;;;;;;;;;;5034180;28;20514;-89
2023/12/12 14:14:22;;;;;;;31.05;19.35;;;;;;;;;;5016331;28;20104;-86
2023/12/12 14:16:47;;;;;;;29.00;18.50;;;;;;;;;;5027891;28;20021;-86
2023/12/12 14:19:13;;;;;;;22.10;15.52;;;;;;;;;;5027125;28;20021;-87
2023/12/12 14:21:38;;;;;;;34.42;20.60;;;;;;;;;;5017521;28;20390;-87